Terminal Aerodrome Forecast
Issued by NWS

Current Version | Previous Version | Graphics & Text | Print | Product List | Glossary On
Versions: 1 2 3 4 5 6 7 8 9 10 11 12 13 14 15 16 17 18 19 20 21 22
000
FTUS41 KILN 200323 AAB
TAFLUK
TAF AMD
KLUK 200323Z 2003/2024 VRB04KT P6SM -RA OVC022
      TEMPO 2005/2009 2SM RA BR OVC015
     FM201000 15005KT 3SM BR VCSH OVC012
     FM201300 18005KT 4SM BR OVC008
     FM201600 21005KT 5SM BR BKN011
     FM202100 18003KT P6SM BKN025=

USA.gov is the U.S. government's official web portal to all federal, state and local government web resources and services.